Historique des mesures à Cassis (13260), France
Quotidien Résumé Décembre 25, 2017 Unités:  Métrique    US   Métrique/US
« Précédent (Jour)
Suivant (Jour) »
Quotidien Hebdomadaire Mensuel Annuel Période au choix
  Maximum: Minimum: Moyenne:
Température: TemperatureC °C 6.1 °C 9.2 °C
Point de rosée: DewpointC °C 2.7 °C 6.6 °C
Humidité: Humidity % 78 % 80 %
Vitesse du vent: 0 km/h 0 km/h 0 km/h
Rafales: 0 km/h - -
Vent:- - North
Pression: PressurehPa hPa 1019.2 hPa -
Précipitations: 0.0 mm    
Historical Graphs
 
 
Mesures pour : Décembre 25, 2017
Heure Temperature Point de rosée Pression Vent Vitesse du vent Rafales Humidité Pluie (par heure) Conditions
TemperatureC °C DewpointC °C PressurehPa hPa Calm     Humidity % HourlyPrecipMM mm SoftwareType W/m2
01:11 6.1 °C 2.9 °C 1026.3 hPa Calm     80 % 0.0 mm open2300-1.11 W/m2
02:10 6.1 °C 2.7 °C 1026.0 hPa Calm     79 % 0.0 mm open2300-1.11 W/m2
03:10 6.3 °C 3.1 °C 1025.6 hPa Calm     80 % 0.0 mm open2300-1.11 W/m2
05:10 6.5 °C 2.9 °C 1024.9 hPa Calm     78 % 0.0 mm open2300-1.11 W/m2
07:10 6.7 °C 3.3 °C 1024.6 hPa Calm     79 % 0.0 mm open2300-1.11 W/m2
08:10 6.8 °C 3.8 °C 1024.6 hPa Calm     81 % 0.0 mm open2300-1.11 W/m2
09:10 7.8 °C 4.9 °C 1024.6 hPa Calm     82 % 0.0 mm open2300-1.11 W/m2
10:10 8.8 °C 5.9 °C 1024.6 hPa Calm     82 % 0.0 mm open2300-1.11 W/m2
11:10 9.8 °C 7.0 °C 1024.9 hPa Calm     83 % 0.0 mm open2300-1.11 W/m2
12:10 10.8 °C 8.0 °C 1023.9 hPa Calm     83 % 0.0 mm open2300-1.11 W/m2
13:10 11.3 °C 8.3 °C 1023.2 hPa Calm     82 % 0.0 mm open2300-1.11 W/m2
14:10 11.0 °C 8.2 °C 1022.2 hPa Calm     83 % 0.0 mm open2300-1.11 W/m2
15:11 11.3 °C 8.7 °C 1021.9 hPa Calm     84 % 0.0 mm open2300-1.11 W/m2
16:10 11.3 °C 8.8 °C 1021.2 hPa Calm     85 % 0.0 mm open2300-1.11 W/m2
17:10 11.3 °C 9.0 °C 1020.9 hPa Calm     86 % 0.0 mm open2300-1.11 W/m2
18:10 11.2 °C 8.9 °C 1020.5 hPa Calm     86 % 0.0 mm open2300-1.11 W/m2
19:10 11.4 °C 9.3 °C 1020.5 hPa Calm     87 % 0.0 mm open2300-1.11 W/m2
20:10 11.8 °C 9.9 °C 1020.2 hPa Calm     88 % 0.0 mm open2300-1.11 W/m2
21:11 11.8 °C 9.9 °C 1020.2 hPa Calm     88 % 0.0 mm open2300-1.11 W/m2
22:10 11.8 °C 9.9 °C 1019.5 hPa Calm     88 % 0.0 mm open2300-1.11 W/m2
23:10 11.6 °C 9.8 °C 1019.2 hPa Calm     89 % 0.0 mm open2300-1.11 W/m2
Observations météo à CASSIS
WU-History script by Weather Underground - 1 mb